createdAt,value
2022-08-03T00:01:48.445Z,100.00
2022-08-03T00:06:50.028Z,100.00
2022-08-03T00:11:51.568Z,100.00
2022-08-03T00:16:53.262Z,100.00
2022-08-03T00:21:54.809Z,100.00
2022-08-03T00:26:56.385Z,100.00
2022-08-03T00:31:59.446Z,100.00
2022-08-03T00:37:02.086Z,100.00
2022-08-03T00:42:04.983Z,100.00
2022-08-03T00:47:07.278Z,100.00
2022-08-03T00:52:12.443Z,100.00
2022-08-03T00:57:14.118Z,100.00
2022-08-03T01:02:15.841Z,100.00
2022-08-03T01:07:40.710Z,100.00
2022-08-03T01:12:50.336Z,100.00
2022-08-03T01:17:57.643Z,100.00
2022-08-03T01:23:30.386Z,100.00
2022-08-03T01:28:50.521Z,100.00
2022-08-03T01:33:58.334Z,100.00
2022-08-03T01:39:03.262Z,100.00
2022-08-03T01:44:29.139Z,100.00
2022-08-03T01:49:34.636Z,100.00
2022-08-03T01:54:43.218Z,100.00
2022-08-03T01:59:48.642Z,100.00
2022-08-03T02:04:52.525Z,100.00
2022-08-03T02:09:55.708Z,100.00
2022-08-03T02:15:00.042Z,100.00
2022-08-03T02:20:03.413Z,100.00
2022-08-03T02:25:05.366Z,100.00
2022-08-03T02:30:10.918Z,100.00
2022-08-03T02:35:16.987Z,100.00
2022-08-03T02:40:21.102Z,100.00
2022-08-03T02:45:26.321Z,100.00
2022-08-03T02:50:30.755Z,100.00
2022-08-03T02:55:35.474Z,100.00
2022-08-03T03:00:39.290Z,100.00
2022-08-03T03:05:53.534Z,100.00
2022-08-03T03:11:07.594Z,100.00
2022-08-03T03:16:11.898Z,100.00
2022-08-03T03:21:16.419Z,100.00
2022-08-03T03:26:20.139Z,100.00
2022-08-03T03:31:22.434Z,100.00
2022-08-03T03:36:24.131Z,100.00
2022-08-03T03:41:25.804Z,100.00
2022-08-03T03:46:29.462Z,100.00
2022-08-03T03:51:31.094Z,100.00
2022-08-03T03:56:33.214Z,100.00
2022-08-03T04:01:34.811Z,100.00
2022-08-03T04:06:55.052Z,100.00
2022-08-03T04:12:01.045Z,100.00
2022-08-03T04:17:07.282Z,100.00
2022-08-03T04:22:14.578Z,100.00
2022-08-03T04:27:23.411Z,100.00
2022-08-03T04:32:28.679Z,100.00
2022-08-03T04:37:40.046Z,100.00
2022-08-03T04:42:43.385Z,100.00
2022-08-03T04:47:45.397Z,100.00
2022-08-03T04:52:47.021Z,100.00
2022-08-03T04:57:48.602Z,100.00
2022-08-03T05:02:50.336Z,100.00
2022-08-03T05:07:56.361Z,100.00
2022-08-03T05:12:58.005Z,100.00
2022-08-03T05:17:59.856Z,100.00
2022-08-03T05:23:03.911Z,100.00
2022-08-03T05:28:05.576Z,100.00
2022-08-03T05:33:07.959Z,100.00
2022-08-03T05:38:09.657Z,100.00
2022-08-03T05:43:12.179Z,100.00
2022-08-03T05:48:13.759Z,100.00
2022-08-03T05:53:15.718Z,100.00
2022-08-03T05:58:17.356Z,100.00
2022-08-03T06:03:20.208Z,100.00
2022-08-03T06:08:28.009Z,100.00
2022-08-03T06:13:29.775Z,100.00
2022-08-03T06:18:31.495Z,100.00
2022-08-03T06:23:52.933Z,100.00
2022-08-03T06:28:55.288Z,100.00
2022-08-03T06:34:33.596Z,100.00
2022-08-03T06:39:18.656Z,100.00
2022-08-03T06:44:20.372Z,100.00
2022-08-03T06:49:22.176Z,100.00
2022-08-03T06:54:24.481Z,100.00
2022-08-03T07:00:09.789Z,100.00
2022-08-03T07:04:48.457Z,100.00
2022-08-03T07:09:55.718Z,100.00
2022-08-03T07:15:02.634Z,100.00
2022-08-03T07:20:07.368Z,100.00
2022-08-03T07:25:09.511Z,100.00
2022-08-03T07:30:11.436Z,100.00
2022-08-03T07:35:25.239Z,100.00
2022-08-03T07:40:30.692Z,100.00
2022-08-03T07:45:34.206Z,100.00
2022-08-03T07:50:35.929Z,100.00
2022-08-03T07:55:37.741Z,100.00
2022-08-03T08:00:39.686Z,100.00
2022-08-03T08:05:41.309Z,100.00
2022-08-03T08:10:42.885Z,100.00
2022-08-03T08:16:00.592Z,100.00
2022-08-03T08:21:03.465Z,100.00
2022-08-03T08:26:05.812Z,100.00
2022-08-03T08:31:07.852Z,100.00
2022-08-03T08:36:13.383Z,100.00
2022-08-03T08:41:17.307Z,100.00
2022-08-03T08:46:23.933Z,95.21
2022-08-03T08:51:59.476Z,95.56
2022-08-03T08:56:59.416Z,91.33
2022-08-03T09:02:01.254Z,90.18
2022-08-03T09:07:19.556Z,90.40
2022-08-03T09:12:42.183Z,89.90
2022-08-03T09:17:48.843Z,82.85
2022-08-03T09:22:56.569Z,85.95
2022-08-03T09:28:13.109Z,77.50
2022-08-03T09:33:47.170Z,76.60
2022-08-03T09:39:06.380Z,77.98
2022-08-03T09:44:08.416Z,75.83
2022-08-03T09:49:30.422Z,72.35
2022-08-03T09:54:32.773Z,71.73
2022-08-03T09:59:35.069Z,68.80
2022-08-03T10:04:48.018Z,68.53
2022-08-03T10:10:30.109Z,69.93
2022-08-03T10:16:23.664Z,65.32
2022-08-03T10:20:51.789Z,64.93
2022-08-03T10:26:01.959Z,66.61
2022-08-03T10:31:07.760Z,62.33
2022-08-03T10:36:10.935Z,64.51
2022-08-03T10:41:15.920Z,60.67
2022-08-03T10:46:21.256Z,60.69
2022-08-03T10:51:23.896Z,58.80
2022-08-03T10:56:53.546Z,60.11
2022-08-03T11:02:00.230Z,58.96
2022-08-03T11:07:23.723Z,59.31
2022-08-03T11:12:30.768Z,56.61
2022-08-03T11:17:55.710Z,59.80
2022-08-03T11:22:59.593Z,54.36
2022-08-03T11:28:27.752Z,51.80
2022-08-03T11:33:30.569Z,54.07
2022-08-03T11:38:32.240Z,56.76
2022-08-03T11:43:37.782Z,56.95
2022-08-03T11:48:43.229Z,53.70
2022-08-03T11:53:47.953Z,52.36
2022-08-03T11:59:00.984Z,54.95
2022-08-03T12:04:17.080Z,52.14
2022-08-03T12:09:21.349Z,56.35
2022-08-03T12:14:48.940Z,52.86
2022-08-03T12:19:45.257Z,44.50
2022-08-03T12:24:47.831Z,47.82
2022-08-03T12:29:58.432Z,47.64
2022-08-03T12:35:01.947Z,49.53
2022-08-03T12:40:10.543Z,50.89
2022-08-03T12:45:31.894Z,47.65
2022-08-03T12:50:36.764Z,49.91
2022-08-03T12:55:57.154Z,52.90
2022-08-03T13:01:01.662Z,51.91
2022-08-03T13:06:18.819Z,48.35
2022-08-03T13:11:57.270Z,50.03
2022-08-03T13:16:50.600Z,50.39
2022-08-03T13:21:53.424Z,49.83
2022-08-03T13:28:01.304Z,54.06
2022-08-03T13:32:29.115Z,51.67
2022-08-03T13:37:32.501Z,51.22
2022-08-03T13:42:36.309Z,49.63
2022-08-03T13:47:38.032Z,48.68
2022-08-03T13:52:39.691Z,49.02
2022-08-03T13:58:06.691Z,46.56
2022-08-03T14:03:12.278Z,47.49
2022-08-03T14:08:15.114Z,52.15
2022-08-03T14:13:18.031Z,47.97
2022-08-03T14:18:29.307Z,48.94
2022-08-03T14:23:37.858Z,47.38
2022-08-03T14:28:39.609Z,50.60
2022-08-03T14:33:41.346Z,49.20
2022-08-03T14:38:42.915Z,44.35
2022-08-03T14:44:00.415Z,50.51
2022-08-03T14:50:38.230Z,48.96
2022-08-03T14:54:26.873Z,50.94
2022-08-03T14:59:28.481Z,52.60
2022-08-03T15:04:50.125Z,50.41
2022-08-03T15:09:51.734Z,50.25
2022-08-03T15:14:53.303Z,55.03
2022-08-03T15:20:02.165Z,53.78
2022-08-03T15:26:30.292Z,56.73
2022-08-03T15:30:40.105Z,55.25
2022-08-03T15:35:41.724Z,59.84
2022-08-03T15:40:43.447Z,58.52
2022-08-03T15:45:45.136Z,59.85
2022-08-03T15:50:54.576Z,59.53
2022-08-03T15:55:56.258Z,66.82
2022-08-03T16:01:02.347Z,60.99
2022-08-03T16:06:07.066Z,55.84
2022-08-03T16:11:10.456Z,57.83
2022-08-03T16:16:13.110Z,61.43
2022-08-03T16:21:15.613Z,59.35
2022-08-03T16:26:22.223Z,59.47
2022-08-03T16:31:32.284Z,56.14
2022-08-03T16:36:35.136Z,62.07
2022-08-03T16:41:54.302Z,63.91
2022-08-03T16:47:02.505Z,63.10
2022-08-03T16:52:07.348Z,65.00
2022-08-03T16:57:08.960Z,66.50
2022-08-03T17:02:20.750Z,72.23
2022-08-03T17:07:30.322Z,66.09
2022-08-03T17:12:32.009Z,62.28
2022-08-03T17:17:37.558Z,67.66
2022-08-03T17:23:00.792Z,68.68
2022-08-03T17:28:49.512Z,67.07
2022-08-03T17:33:35.459Z,75.56
2022-08-03T17:38:39.930Z,78.76
2022-08-03T17:44:14.955Z,82.96
2022-08-03T17:49:24.982Z,80.75
2022-08-03T17:55:55.586Z,96.45
2022-08-03T18:00:28.625Z,100.00
2022-08-03T18:06:10.615Z,100.00
2022-08-03T18:11:21.700Z,100.00
2022-08-03T18:16:45.677Z,100.00
2022-08-03T18:22:03.590Z,100.00
2022-08-03T18:27:10.921Z,90.79
2022-08-03T18:32:16.813Z,100.00
2022-08-03T18:37:25.189Z,92.06
2022-08-03T18:42:28.600Z,95.46
2022-08-03T18:47:52.188Z,100.00
2022-08-03T18:53:03.603Z,100.00
2022-08-03T18:58:09.726Z,100.00
2022-08-03T19:03:24.559Z,100.00
2022-08-03T19:08:42.815Z,100.00
2022-08-03T19:13:50.188Z,100.00
2022-08-03T19:18:54.108Z,100.00
2022-08-03T19:23:59.777Z,100.00
2022-08-03T19:29:02.471Z,100.00
2022-08-03T19:34:04.873Z,100.00
2022-08-03T19:39:09.184Z,100.00
2022-08-03T19:44:20.152Z,100.00
2022-08-03T19:50:04.659Z,100.00
2022-08-03T19:54:54.038Z,100.00
2022-08-03T19:59:57.537Z,100.00
2022-08-03T20:05:00.518Z,100.00
2022-08-03T20:10:05.387Z,100.00
2022-08-03T20:15:07.882Z,100.00
2022-08-03T20:20:10.495Z,100.00
2022-08-03T20:25:16.227Z,100.00
2022-08-03T20:30:27.358Z,100.00
2022-08-03T20:35:29.143Z,100.00
2022-08-03T20:40:40.413Z,100.00
2022-08-03T20:46:00.915Z,100.00
2022-08-03T20:51:19.295Z,100.00
2022-08-03T21:01:27.683Z,100.00
2022-08-03T21:12:15.430Z,100.00
2022-08-03T21:13:12.685Z,100.00
2022-08-03T21:17:39.281Z,100.00
2022-08-03T21:22:49.642Z,100.00
2022-08-03T21:27:52.106Z,100.00
2022-08-03T21:33:08.091Z,100.00
2022-08-03T21:38:30.243Z,100.00
2022-08-03T21:43:34.531Z,100.00
2022-08-03T21:48:38.623Z,100.00
2022-08-03T21:54:04.516Z,100.00
2022-08-03T21:59:08.766Z,100.00
2022-08-03T22:04:50.266Z,100.00
2022-08-03T22:09:37.004Z,100.00
2022-08-03T22:14:39.103Z,100.00
2022-08-03T22:19:40.742Z,100.00
2022-08-03T22:24:52.624Z,100.00
2022-08-03T22:30:02.958Z,100.00
2022-08-03T22:35:07.602Z,100.00
2022-08-03T22:40:12.530Z,100.00
2022-08-03T22:46:06.474Z,100.00
2022-08-03T22:50:39.124Z,100.00
2022-08-03T22:55:40.982Z,100.00
2022-08-03T23:00:53.923Z,100.00
2022-08-03T23:06:02.104Z,100.00
2022-08-03T23:11:08.470Z,100.00
2022-08-03T23:16:10.430Z,100.00
2022-08-03T23:21:12.540Z,100.00
2022-08-03T23:26:17.998Z,100.00
2022-08-03T23:31:25.209Z,100.00
2022-08-03T23:36:30.431Z,100.00
2022-08-03T23:41:34.483Z,100.00
2022-08-03T23:46:37.507Z,100.00
2022-08-03T23:51:45.326Z,100.00
2022-08-03T23:57:05.528Z,100.00
